sensor_id;sensor_type;location;lat;lon;timestamp;P1;durP1;ratioP1;P2;durP2;ratioP2
47758;SDS011;33520;55.122;35.582;2023-08-21T00:01:23;4.47;;;3.00;;
47758;SDS011;33520;55.122;35.582;2023-08-21T00:03:49;4.60;;;2.80;;
47758;SDS011;33520;55.122;35.582;2023-08-21T00:06:16;5.68;;;3.03;;
47758;SDS011;33520;55.122;35.582;2023-08-21T00:08:42;3.80;;;2.60;;
47758;SDS011;33520;55.122;35.582;2023-08-21T00:11:08;5.20;;;3.17;;
47758;SDS011;33520;55.122;35.582;2023-08-21T00:13:34;4.20;;;2.80;;
47758;SDS011;33520;55.122;35.582;2023-08-21T00:16:01;3.92;;;2.13;;
47758;SDS011;33520;55.122;35.582;2023-08-21T00:18:27;5.32;;;2.50;;
47758;SDS011;33520;55.122;35.582;2023-08-21T00:20:54;4.25;;;1.98;;
47758;SDS011;33520;55.122;35.582;2023-08-21T00:23:20;5.05;;;1.50;;
47758;SDS011;33520;55.122;35.582;2023-08-21T00:25:47;3.47;;;1.30;;
47758;SDS011;33520;55.122;35.582;2023-08-21T00:28:14;2.35;;;1.40;;
47758;SDS011;33520;55.122;35.582;2023-08-21T00:30:41;2.95;;;1.20;;
47758;SDS011;33520;55.122;35.582;2023-08-21T00:33:07;4.13;;;1.25;;
47758;SDS011;33520;55.122;35.582;2023-08-21T00:35:34;5.10;;;1.55;;
47758;SDS011;33520;55.122;35.582;2023-08-21T00:38:00;1.58;;;1.10;;
47758;SDS011;33520;55.122;35.582;2023-08-21T00:40:27;2.75;;;0.90;;
47758;SDS011;33520;55.122;35.582;2023-08-21T00:42:54;3.20;;;1.20;;
47758;SDS011;33520;55.122;35.582;2023-08-21T00:45:21;2.42;;;0.98;;
47758;SDS011;33520;55.122;35.582;2023-08-21T00:47:48;2.50;;;1.08;;
47758;SDS011;33520;55.122;35.582;2023-08-21T00:50:14;2.50;;;1.10;;
47758;SDS011;33520;55.122;35.582;2023-08-21T00:52:42;4.63;;;1.58;;
47758;SDS011;33520;55.122;35.582;2023-08-21T00:55:11;1.90;;;1.17;;
47758;SDS011;33520;55.122;35.582;2023-08-21T00:57:38;1.90;;;1.20;;
47758;SDS011;33520;55.122;35.582;2023-08-21T01:00:06;1.60;;;0.90;;
47758;SDS011;33520;55.122;35.582;2023-08-21T01:02:36;1.90;;;0.88;;
47758;SDS011;33520;55.122;35.582;2023-08-21T01:05:02;8.73;;;1.08;;
47758;SDS011;33520;55.122;35.582;2023-08-21T01:07:31;2.28;;;0.98;;
47758;SDS011;33520;55.122;35.582;2023-08-21T01:10:09;3.45;;;1.00;;
47758;SDS011;33520;55.122;35.582;2023-08-21T01:15:27;1.33;;;1.00;;
47758;SDS011;33520;55.122;35.582;2023-08-21T01:17:54;2.60;;;1.10;;
47758;SDS011;33520;55.122;35.582;2023-08-21T01:20:22;8.57;;;1.08;;
47758;SDS011;33520;55.122;35.582;2023-08-21T01:22:49;1.60;;;1.10;;
47758;SDS011;33520;55.122;35.582;2023-08-21T01:25:16;2.90;;;1.17;;
47758;SDS011;33520;55.122;35.582;2023-08-21T01:27:44;2.08;;;0.82;;
47758;SDS011;33520;55.122;35.582;2023-08-21T01:30:13;2.13;;;1.08;;
47758;SDS011;33520;55.122;35.582;2023-08-21T01:35:05;4.03;;;1.88;;
47758;SDS011;33520;55.122;35.582;2023-08-21T01:37:33;3.28;;;1.08;;
47758;SDS011;33520;55.122;35.582;2023-08-21T01:40:00;6.38;;;1.10;;
47758;SDS011;33520;55.122;35.582;2023-08-21T01:42:26;5.93;;;1.08;;
47758;SDS011;33520;55.122;35.582;2023-08-21T01:44:53;1.92;;;1.00;;
47758;SDS011;33520;55.122;35.582;2023-08-21T01:47:19;4.07;;;1.15;;
47758;SDS011;33520;55.122;35.582;2023-08-21T01:49:45;2.08;;;1.20;;
47758;SDS011;33520;55.122;35.582;2023-08-21T01:52:12;2.38;;;1.08;;
47758;SDS011;33520;55.122;35.582;2023-08-21T01:54:39;1.95;;;1.20;;
47758;SDS011;33520;55.122;35.582;2023-08-21T01:57:05;1.42;;;0.80;;
47758;SDS011;33520;55.122;35.582;2023-08-21T01:59:32;1.88;;;0.82;;
47758;SDS011;33520;55.122;35.582;2023-08-21T02:01:58;2.05;;;1.25;;
47758;SDS011;33520;55.122;35.582;2023-08-21T02:06:51;1.48;;;0.93;;
47758;SDS011;33520;55.122;35.582;2023-08-21T02:09:17;2.80;;;0.98;;
47758;SDS011;33520;55.122;35.582;2023-08-21T02:11:43;4.18;;;1.20;;
47758;SDS011;33520;55.122;35.582;2023-08-21T02:14:10;2.38;;;1.10;;
47758;SDS011;33520;55.122;35.582;2023-08-21T02:16:36;5.85;;;1.13;;
47758;SDS011;33520;55.122;35.582;2023-08-21T02:19:03;2.25;;;1.20;;
47758;SDS011;33520;55.122;35.582;2023-08-21T02:21:29;2.78;;;0.95;;
47758;SDS011;33520;55.122;35.582;2023-08-21T02:23:55;3.55;;;1.00;;
47758;SDS011;33520;55.122;35.582;2023-08-21T02:26:22;3.83;;;1.23;;
47758;SDS011;33520;55.122;35.582;2023-08-21T02:28:49;2.38;;;1.75;;
47758;SDS011;33520;55.122;35.582;2023-08-21T02:31:16;2.95;;;1.30;;
47758;SDS011;33520;55.122;35.582;2023-08-21T02:33:43;1.65;;;1.17;;
47758;SDS011;33520;55.122;35.582;2023-08-21T02:36:09;2.15;;;1.00;;
47758;SDS011;33520;55.122;35.582;2023-08-21T02:38:36;4.32;;;1.10;;
47758;SDS011;33520;55.122;35.582;2023-08-21T02:41:03;2.20;;;0.98;;
47758;SDS011;33520;55.122;35.582;2023-08-21T02:43:29;1.90;;;1.15;;
47758;SDS011;33520;55.122;35.582;2023-08-21T02:48:22;2.33;;;1.10;;
47758;SDS011;33520;55.122;35.582;2023-08-21T02:53:14;1.02;;;0.90;;
47758;SDS011;33520;55.122;35.582;2023-08-21T02:55:40;3.35;;;1.50;;
47758;SDS011;33520;55.122;35.582;2023-08-21T02:58:07;2.15;;;1.00;;
47758;SDS011;33520;55.122;35.582;2023-08-21T03:00:34;3.85;;;1.08;;
47758;SDS011;33520;55.122;35.582;2023-08-21T03:03:01;4.47;;;1.10;;
47758;SDS011;33520;55.122;35.582;2023-08-21T03:05:27;2.25;;;1.00;;
47758;SDS011;33520;55.122;35.582;2023-08-21T03:07:54;2.63;;;1.15;;
47758;SDS011;33520;55.122;35.582;2023-08-21T03:10:20;1.35;;;0.93;;
47758;SDS011;33520;55.122;35.582;2023-08-21T03:12:49;1.35;;;0.90;;
47758;SDS011;33520;55.122;35.582;2023-08-21T03:17:41;3.58;;;1.20;;
47758;SDS011;33520;55.122;35.582;2023-08-21T03:20:08;1.70;;;1.00;;
47758;SDS011;33520;55.122;35.582;2023-08-21T03:22:34;1.77;;;1.00;;
47758;SDS011;33520;55.122;35.582;2023-08-21T03:25:01;1.30;;;0.88;;
47758;SDS011;33520;55.122;35.582;2023-08-21T03:27:28;5.60;;;1.10;;
47758;SDS011;33520;55.122;35.582;2023-08-21T03:29:55;4.05;;;1.20;;
47758;SDS011;33520;55.122;35.582;2023-08-21T03:32:22;2.17;;;1.33;;
47758;SDS011;33520;55.122;35.582;2023-08-21T03:34:48;1.30;;;1.00;;
47758;SDS011;33520;55.122;35.582;2023-08-21T03:37:15;1.80;;;1.30;;
47758;SDS011;33520;55.122;35.582;2023-08-21T03:39:41;2.65;;;1.30;;
47758;SDS011;33520;55.122;35.582;2023-08-21T03:42:10;3.08;;;1.05;;
47758;SDS011;33520;55.122;35.582;2023-08-21T03:44:37;4.03;;;1.33;;
47758;SDS011;33520;55.122;35.582;2023-08-21T03:47:06;4.18;;;0.93;;
47758;SDS011;33520;55.122;35.582;2023-08-21T03:49:37;1.65;;;1.00;;
47758;SDS011;33520;55.122;35.582;2023-08-21T03:52:04;3.05;;;1.23;;
47758;SDS011;33520;55.122;35.582;2023-08-21T03:54:30;1.88;;;1.15;;
47758;SDS011;33520;55.122;35.582;2023-08-21T03:59:23;2.70;;;1.13;;
47758;SDS011;33520;55.122;35.582;2023-08-21T04:01:53;1.17;;;0.90;;
47758;SDS011;33520;55.122;35.582;2023-08-21T04:04:20;3.17;;;1.58;;
47758;SDS011;33520;55.122;35.582;2023-08-21T04:06:47;3.28;;;1.20;;
47758;SDS011;33520;55.122;35.582;2023-08-21T04:11:39;3.40;;;1.42;;
47758;SDS011;33520;55.122;35.582;2023-08-21T04:14:06;3.75;;;1.90;;
47758;SDS011;33520;55.122;35.582;2023-08-21T04:16:32;2.40;;;1.63;;
47758;SDS011;33520;55.122;35.582;2023-08-21T04:21:24;3.30;;;1.92;;
47758;SDS011;33520;55.122;35.582;2023-08-21T04:23:50;3.42;;;1.83;;
47758;SDS011;33520;55.122;35.582;2023-08-21T04:26:17;3.50;;;1.80;;
47758;SDS011;33520;55.122;35.582;2023-08-21T04:28:44;4.88;;;1.52;;
47758;SDS011;33520;55.122;35.582;2023-08-21T04:31:11;3.08;;;1.95;;
47758;SDS011;33520;55.122;35.582;2023-08-21T04:33:39;3.17;;;1.58;;
47758;SDS011;33520;55.122;35.582;2023-08-21T04:36:06;4.70;;;1.80;;
47758;SDS011;33520;55.122;35.582;2023-08-21T04:38:33;3.90;;;2.00;;
47758;SDS011;33520;55.122;35.582;2023-08-21T04:43:33;3.80;;;2.65;;
47758;SDS011;33520;55.122;35.582;2023-08-21T04:46:01;4.60;;;2.78;;
47758;SDS011;33520;55.122;35.582;2023-08-21T04:48:29;4.38;;;2.20;;
47758;SDS011;33520;55.122;35.582;2023-08-21T04:53:22;4.40;;;2.63;;
47758;SDS011;33520;55.122;35.582;2023-08-21T04:55:49;5.05;;;2.72;;
47758;SDS011;33520;55.122;35.582;2023-08-21T05:00:44;3.92;;;2.50;;
47758;SDS011;33520;55.122;35.582;2023-08-21T05:03:11;4.45;;;2.30;;
47758;SDS011;33520;55.122;35.582;2023-08-21T05:05:39;6.45;;;3.05;;
47758;SDS011;33520;55.122;35.582;2023-08-21T05:08:05;5.10;;;2.38;;
47758;SDS011;33520;55.122;35.582;2023-08-21T05:10:34;3.58;;;2.70;;
47758;SDS011;33520;55.122;35.582;2023-08-21T05:13:01;5.88;;;2.58;;
47758;SDS011;33520;55.122;35.582;2023-08-21T05:15:28;3.90;;;2.72;;
47758;SDS011;33520;55.122;35.582;2023-08-21T05:17:55;4.38;;;2.55;;
47758;SDS011;33520;55.122;35.582;2023-08-21T05:20:22;3.75;;;2.70;;
47758;SDS011;33520;55.122;35.582;2023-08-21T05:25:14;3.72;;;2.90;;
47758;SDS011;33520;55.122;35.582;2023-08-21T05:27:41;5.70;;;2.70;;
47758;SDS011;33520;55.122;35.582;2023-08-21T05:30:07;4.75;;;3.10;;
47758;SDS011;33520;55.122;35.582;2023-08-21T05:32:36;4.68;;;3.38;;
47758;SDS011;33520;55.122;35.582;2023-08-21T05:35:03;4.90;;;3.17;;
47758;SDS011;33520;55.122;35.582;2023-08-21T05:37:31;11.75;;;3.25;;
47758;SDS011;33520;55.122;35.582;2023-08-21T05:39:58;4.18;;;3.20;;
47758;SDS011;33520;55.122;35.582;2023-08-21T05:44:51;8.60;;;3.28;;
47758;SDS011;33520;55.122;35.582;2023-08-21T05:47:17;4.55;;;3.60;;
47758;SDS011;33520;55.122;35.582;2023-08-21T05:49:44;4.63;;;3.33;;
47758;SDS011;33520;55.122;35.582;2023-08-21T05:52:10;5.65;;;3.95;;
47758;SDS011;33520;55.122;35.582;2023-08-21T05:57:03;4.28;;;2.70;;
47758;SDS011;33520;55.122;35.582;2023-08-21T05:59:30;4.55;;;3.10;;
47758;SDS011;33520;55.122;35.582;2023-08-21T06:01:59;9.00;;;3.42;;
47758;SDS011;33520;55.122;35.582;2023-08-21T06:04:27;5.18;;;3.40;;
47758;SDS011;33520;55.122;35.582;2023-08-21T06:07:00;7.85;;;3.25;;
47758;SDS011;33520;55.122;35.582;2023-08-21T06:09:26;4.03;;;2.95;;
47758;SDS011;33520;55.122;35.582;2023-08-21T06:11:55;4.65;;;3.20;;
47758;SDS011;33520;55.122;35.582;2023-08-21T06:14:22;6.78;;;3.15;;
47758;SDS011;33520;55.122;35.582;2023-08-21T06:16:59;4.78;;;3.60;;
47758;SDS011;33520;55.122;35.582;2023-08-21T06:19:30;5.32;;;3.70;;
47758;SDS011;33520;55.122;35.582;2023-08-21T06:21:57;4.85;;;3.22;;
47758;SDS011;33520;55.122;35.582;2023-08-21T06:24:24;9.27;;;4.07;;
47758;SDS011;33520;55.122;35.582;2023-08-21T06:26:56;5.68;;;3.33;;
47758;SDS011;33520;55.122;35.582;2023-08-21T06:29:22;4.47;;;2.80;;
47758;SDS011;33520;55.122;35.582;2023-08-21T06:31:50;4.40;;;3.00;;
47758;SDS011;33520;55.122;35.582;2023-08-21T06:34:17;4.68;;;3.10;;
47758;SDS011;33520;55.122;35.582;2023-08-21T06:36:44;4.22;;;2.63;;
47758;SDS011;33520;55.122;35.582;2023-08-21T06:39:11;4.97;;;2.67;;
47758;SDS011;33520;55.122;35.582;2023-08-21T06:41:37;3.90;;;2.83;;
47758;SDS011;33520;55.122;35.582;2023-08-21T06:44:03;3.50;;;2.58;;
47758;SDS011;33520;55.122;35.582;2023-08-21T06:46:30;8.32;;;2.90;;
47758;SDS011;33520;55.122;35.582;2023-08-21T06:48:57;5.35;;;2.60;;
47758;SDS011;33520;55.122;35.582;2023-08-21T06:51:24;4.43;;;3.00;;
47758;SDS011;33520;55.122;35.582;2023-08-21T06:53:51;3.85;;;2.78;;
47758;SDS011;33520;55.122;35.582;2023-08-21T06:56:17;4.45;;;3.05;;
47758;SDS011;33520;55.122;35.582;2023-08-21T06:58:46;3.22;;;2.47;;
47758;SDS011;33520;55.122;35.582;2023-08-21T07:01:13;5.90;;;3.00;;
47758;SDS011;33520;55.122;35.582;2023-08-21T07:03:39;5.03;;;2.40;;
47758;SDS011;33520;55.122;35.582;2023-08-21T07:06:06;3.83;;;2.25;;
47758;SDS011;33520;55.122;35.582;2023-08-21T07:08:32;4.40;;;2.25;;
47758;SDS011;33520;55.122;35.582;2023-08-21T07:11:03;2.40;;;1.83;;
47758;SDS011;33520;55.122;35.582;2023-08-21T07:13:30;4.10;;;2.22;;
47758;SDS011;33520;55.122;35.582;2023-08-21T07:18:22;5.60;;;2.25;;
47758;SDS011;33520;55.122;35.582;2023-08-21T07:20:51;4.90;;;2.15;;
47758;SDS011;33520;55.122;35.582;2023-08-21T07:23:19;3.63;;;2.28;;
47758;SDS011;33520;55.122;35.582;2023-08-21T07:25:45;3.72;;;2.60;;
47758;SDS011;33520;55.122;35.582;2023-08-21T07:28:11;2.83;;;1.80;;
47758;SDS011;33520;55.122;35.582;2023-08-21T07:30:38;2.53;;;1.60;;
47758;SDS011;33520;55.122;35.582;2023-08-21T07:33:05;3.10;;;1.60;;
47758;SDS011;33520;55.122;35.582;2023-08-21T07:35:32;2.63;;;1.90;;
47758;SDS011;33520;55.122;35.582;2023-08-21T07:37:59;2.60;;;1.38;;
47758;SDS011;33520;55.122;35.582;2023-08-21T07:40:26;3.60;;;1.98;;
47758;SDS011;33520;55.122;35.582;2023-08-21T07:42:52;2.63;;;1.98;;
47758;SDS011;33520;55.122;35.582;2023-08-21T07:45:19;3.38;;;1.70;;
47758;SDS011;33520;55.122;35.582;2023-08-21T07:47:45;3.22;;;2.00;;
47758;SDS011;33520;55.122;35.582;2023-08-21T07:50:11;4.60;;;1.73;;
47758;SDS011;33520;55.122;35.582;2023-08-21T07:52:40;2.53;;;1.45;;
47758;SDS011;33520;55.122;35.582;2023-08-21T07:55:07;2.53;;;1.30;;
47758;SDS011;33520;55.122;35.582;2023-08-21T07:57:38;4.63;;;1.42;;
47758;SDS011;33520;55.122;35.582;2023-08-21T08:00:04;3.47;;;1.63;;
47758;SDS011;33520;55.122;35.582;2023-08-21T08:02:39;5.20;;;1.50;;
47758;SDS011;33520;55.122;35.582;2023-08-21T08:05:09;2.00;;;1.35;;
47758;SDS011;33520;55.122;35.582;2023-08-21T08:07:35;3.75;;;1.35;;
47758;SDS011;33520;55.122;35.582;2023-08-21T08:10:02;1.63;;;1.25;;
47758;SDS011;33520;55.122;35.582;2023-08-21T08:12:29;2.67;;;1.55;;
47758;SDS011;33520;55.122;35.582;2023-08-21T08:14:56;4.70;;;1.48;;
47758;SDS011;33520;55.122;35.582;2023-08-21T08:17:24;2.38;;;1.40;;
47758;SDS011;33520;55.122;35.582;2023-08-21T08:19:50;2.15;;;1.50;;
47758;SDS011;33520;55.122;35.582;2023-08-21T08:22:17;3.33;;;1.20;;
47758;SDS011;33520;55.122;35.582;2023-08-21T08:24:43;1.95;;;1.27;;
47758;SDS011;33520;55.122;35.582;2023-08-21T08:27:09;3.95;;;1.40;;
47758;SDS011;33520;55.122;35.582;2023-08-21T08:29:37;2.08;;;1.40;;
47758;SDS011;33520;55.122;35.582;2023-08-21T08:32:04;3.83;;;1.20;;
47758;SDS011;33520;55.122;35.582;2023-08-21T08:34:31;1.45;;;1.05;;
47758;SDS011;33520;55.122;35.582;2023-08-21T08:36:57;2.03;;;1.48;;
47758;SDS011;33520;55.122;35.582;2023-08-21T08:39:25;3.03;;;1.42;;
47758;SDS011;33520;55.122;35.582;2023-08-21T08:41:56;3.17;;;1.10;;
47758;SDS011;33520;55.122;35.582;2023-08-21T08:44:25;1.75;;;1.30;;
47758;SDS011;33520;55.122;35.582;2023-08-21T08:46:52;1.80;;;1.17;;
47758;SDS011;33520;55.122;35.582;2023-08-21T08:49:20;1.75;;;1.20;;
47758;SDS011;33520;55.122;35.582;2023-08-21T08:51:49;1.75;;;1.02;;
47758;SDS011;33520;55.122;35.582;2023-08-21T08:54:20;2.20;;;1.25;;
47758;SDS011;33520;55.122;35.582;2023-08-21T08:56:48;1.73;;;1.10;;
47758;SDS011;33520;55.122;35.582;2023-08-21T08:59:14;2.17;;;1.30;;
47758;SDS011;33520;55.122;35.582;2023-08-21T09:01:41;3.83;;;1.10;;
47758;SDS011;33520;55.122;35.582;2023-08-21T09:04:08;2.20;;;1.33;;
47758;SDS011;33520;55.122;35.582;2023-08-21T09:06:34;2.20;;;1.40;;
47758;SDS011;33520;55.122;35.582;2023-08-21T09:09:01;2.03;;;1.00;;
47758;SDS011;33520;55.122;35.582;2023-08-21T09:11:28;3.03;;;1.00;;
47758;SDS011;33520;55.122;35.582;2023-08-21T09:13:55;2.95;;;1.63;;
47758;SDS011;33520;55.122;35.582;2023-08-21T09:16:23;1.45;;;1.13;;
47758;SDS011;33520;55.122;35.582;2023-08-21T09:18:52;2.00;;;1.40;;
47758;SDS011;33520;55.122;35.582;2023-08-21T09:21:23;4.57;;;1.20;;
47758;SDS011;33520;55.122;35.582;2023-08-21T09:23:56;2.78;;;1.20;;
47758;SDS011;33520;55.122;35.582;2023-08-21T09:26:23;1.92;;;1.20;;
47758;SDS011;33520;55.122;35.582;2023-08-21T09:28:50;2.13;;;1.08;;
47758;SDS011;33520;55.122;35.582;2023-08-21T09:31:30;2.67;;;1.30;;
47758;SDS011;33520;55.122;35.582;2023-08-21T09:34:02;1.25;;;1.13;;
47758;SDS011;33520;55.122;35.582;2023-08-21T09:36:32;1.73;;;0.93;;
47758;SDS011;33520;55.122;35.582;2023-08-21T09:39:00;2.20;;;1.00;;
47758;SDS011;33520;55.122;35.582;2023-08-21T09:41:28;5.57;;;1.33;;
47758;SDS011;33520;55.122;35.582;2023-08-21T09:43:58;1.45;;;1.10;;
47758;SDS011;33520;55.122;35.582;2023-08-21T09:46:26;1.33;;;0.85;;
47758;SDS011;33520;55.122;35.582;2023-08-21T09:48:53;1.20;;;1.00;;
47758;SDS011;33520;55.122;35.582;2023-08-21T09:51:20;1.85;;;0.98;;
47758;SDS011;33520;55.122;35.582;2023-08-21T09:53:49;2.13;;;1.13;;
47758;SDS011;33520;55.122;35.582;2023-08-21T09:56:35;1.77;;;1.20;;
47758;SDS011;33520;55.122;35.582;2023-08-21T09:59:02;1.50;;;1.00;;
47758;SDS011;33520;55.122;35.582;2023-08-21T10:01:28;1.38;;;1.00;;
47758;SDS011;33520;55.122;35.582;2023-08-21T10:03:57;1.50;;;1.08;;
47758;SDS011;33520;55.122;35.582;2023-08-21T10:06:28;2.42;;;1.15;;
47758;SDS011;33520;55.122;35.582;2023-08-21T10:08:56;3.78;;;1.30;;
47758;SDS011;33520;55.122;35.582;2023-08-21T10:11:23;1.80;;;1.30;;
47758;SDS011;33520;55.122;35.582;2023-08-21T10:13:49;3.78;;;1.30;;
47758;SDS011;33520;55.122;35.582;2023-08-21T10:16:17;1.70;;;1.10;;
47758;SDS011;33520;55.122;35.582;2023-08-21T10:18:44;1.75;;;1.17;;
47758;SDS011;33520;55.122;35.582;2023-08-21T10:21:15;1.50;;;1.10;;
47758;SDS011;33520;55.122;35.582;2023-08-21T10:23:50;2.22;;;1.13;;
47758;SDS011;33520;55.122;35.582;2023-08-21T10:26:21;1.50;;;1.00;;
47758;SDS011;33520;55.122;35.582;2023-08-21T10:28:49;1.75;;;0.90;;
47758;SDS011;33520;55.122;35.582;2023-08-21T10:31:31;1.35;;;1.00;;
47758;SDS011;33520;55.122;35.582;2023-08-21T10:34:03;1.98;;;1.55;;
47758;SDS011;33520;55.122;35.582;2023-08-21T10:47:13;1.73;;;1.00;;
47758;SDS011;33520;55.122;35.582;2023-08-21T10:49:45;1.10;;;1.00;;
47758;SDS011;33520;55.122;35.582;2023-08-21T10:52:12;1.38;;;1.00;;
47758;SDS011;33520;55.122;35.582;2023-08-21T10:54:44;1.27;;;0.90;;
47758;SDS011;33520;55.122;35.582;2023-08-21T10:57:14;1.65;;;1.00;;
47758;SDS011;33520;55.122;35.582;2023-08-21T10:59:55;1.85;;;1.00;;
47758;SDS011;33520;55.122;35.582;2023-08-21T11:02:23;1.23;;;1.00;;
47758;SDS011;33520;55.122;35.582;2023-08-21T11:04:52;1.50;;;1.17;;
47758;SDS011;33520;55.122;35.582;2023-08-21T11:07:18;1.20;;;0.90;;
47758;SDS011;33520;55.122;35.582;2023-08-21T11:09:45;1.63;;;1.08;;
47758;SDS011;33520;55.122;35.582;2023-08-21T11:12:12;1.13;;;0.98;;
47758;SDS011;33520;55.122;35.582;2023-08-21T11:14:39;2.17;;;1.40;;
47758;SDS011;33520;55.122;35.582;2023-08-21T11:17:07;2.35;;;1.05;;
47758;SDS011;33520;55.122;35.582;2023-08-21T11:19:34;2.55;;;1.20;;
47758;SDS011;33520;55.122;35.582;2023-08-21T11:22:01;1.83;;;1.20;;
47758;SDS011;33520;55.122;35.582;2023-08-21T11:24:42;2.83;;;1.20;;
47758;SDS011;33520;55.122;35.582;2023-08-21T11:27:13;1.50;;;0.98;;
47758;SDS011;33520;55.122;35.582;2023-08-21T11:29:42;1.98;;;1.13;;
47758;SDS011;33520;55.122;35.582;2023-08-21T11:34:49;1.90;;;1.08;;
47758;SDS011;33520;55.122;35.582;2023-08-21T11:37:25;2.08;;;1.20;;
47758;SDS011;33520;55.122;35.582;2023-08-21T11:39:53;1.25;;;0.90;;
47758;SDS011;33520;55.122;35.582;2023-08-21T11:42:22;0.93;;;0.80;;
47758;SDS011;33520;55.122;35.582;2023-08-21T11:44:56;1.55;;;1.20;;
47758;SDS011;33520;55.122;35.582;2023-08-21T11:47:22;1.48;;;0.93;;
47758;SDS011;33520;55.122;35.582;2023-08-21T11:49:49;1.00;;;0.90;;
47758;SDS011;33520;55.122;35.582;2023-08-21T11:52:20;1.35;;;0.90;;
47758;SDS011;33520;55.122;35.582;2023-08-21T11:54:49;1.65;;;1.02;;
47758;SDS011;33520;55.122;35.582;2023-08-21T11:57:16;1.88;;;1.15;;
47758;SDS011;33520;55.122;35.582;2023-08-21T11:59:51;1.58;;;1.10;;
47758;SDS011;33520;55.122;35.582;2023-08-21T12:02:24;1.80;;;0.98;;
47758;SDS011;33520;55.122;35.582;2023-08-21T12:05:03;1.50;;;0.98;;
47758;SDS011;33520;55.122;35.582;2023-08-21T12:07:33;2.58;;;0.95;;
47758;SDS011;33520;55.122;35.582;2023-08-21T12:09:59;1.58;;;0.98;;
47758;SDS011;33520;55.122;35.582;2023-08-21T12:12:26;1.30;;;1.00;;
47758;SDS011;33520;55.122;35.582;2023-08-21T12:14:53;1.33;;;1.00;;
47758;SDS011;33520;55.122;35.582;2023-08-21T12:17:20;2.00;;;1.10;;
47758;SDS011;33520;55.122;35.582;2023-08-21T12:19:46;2.30;;;1.20;;
47758;SDS011;33520;55.122;35.582;2023-08-21T12:22:13;4.07;;;1.17;;
47758;SDS011;33520;55.122;35.582;2023-08-21T12:24:40;2.13;;;1.20;;
47758;SDS011;33520;55.122;35.582;2023-08-21T12:27:06;2.40;;;1.10;;
47758;SDS011;33520;55.122;35.582;2023-08-21T12:29:34;4.25;;;1.20;;
47758;SDS011;33520;55.122;35.582;2023-08-21T12:32:00;1.45;;;1.00;;
47758;SDS011;33520;55.122;35.582;2023-08-21T12:34:28;2.42;;;1.13;;
47758;SDS011;33520;55.122;35.582;2023-08-21T12:36:55;2.33;;;1.23;;
47758;SDS011;33520;55.122;35.582;2023-08-21T12:39:24;3.10;;;1.13;;
47758;SDS011;33520;55.122;35.582;2023-08-21T12:41:50;1.42;;;1.00;;
47758;SDS011;33520;55.122;35.582;2023-08-21T12:44:17;1.92;;;1.13;;
47758;SDS011;33520;55.122;35.582;2023-08-21T12:46:43;2.53;;;1.05;;
47758;SDS011;33520;55.122;35.582;2023-08-21T12:49:10;1.48;;;1.00;;
47758;SDS011;33520;55.122;35.582;2023-08-21T12:51:37;1.65;;;1.00;;
47758;SDS011;33520;55.122;35.582;2023-08-21T12:54:04;2.38;;;1.17;;
47758;SDS011;33520;55.122;35.582;2023-08-21T12:56:32;3.15;;;0.85;;
47758;SDS011;33520;55.122;35.582;2023-08-21T12:58:58;2.55;;;1.08;;
47758;SDS011;33520;55.122;35.582;2023-08-21T13:01:25;1.95;;;0.90;;
47758;SDS011;33520;55.122;35.582;2023-08-21T13:03:51;1.10;;;0.93;;
47758;SDS011;33520;55.122;35.582;2023-08-21T13:06:18;1.60;;;1.00;;
47758;SDS011;33520;55.122;35.582;2023-08-21T13:08:44;2.47;;;1.30;;
47758;SDS011;33520;55.122;35.582;2023-08-21T13:11:11;2.90;;;1.45;;
47758;SDS011;33520;55.122;35.582;2023-08-21T13:13:37;1.40;;;0.98;;
47758;SDS011;33520;55.122;35.582;2023-08-21T13:16:04;1.20;;;1.00;;
47758;SDS011;33520;55.122;35.582;2023-08-21T13:18:30;2.38;;;0.93;;
47758;SDS011;33520;55.122;35.582;2023-08-21T13:20:57;2.00;;;1.02;;
47758;SDS011;33520;55.122;35.582;2023-08-21T13:23:23;2.50;;;0.98;;
47758;SDS011;33520;55.122;35.582;2023-08-21T13:25:49;0.90;;;0.73;;
47758;SDS011;33520;55.122;35.582;2023-08-21T13:28:16;2.33;;;0.85;;
47758;SDS011;33520;55.122;35.582;2023-08-21T13:30:44;1.92;;;0.85;;
47758;SDS011;33520;55.122;35.582;2023-08-21T13:33:17;0.93;;;0.90;;
47758;SDS011;33520;55.122;35.582;2023-08-21T13:35:46;1.63;;;1.00;;
47758;SDS011;33520;55.122;35.582;2023-08-21T13:38:13;3.38;;;1.20;;
47758;SDS011;33520;55.122;35.582;2023-08-21T13:40:40;2.35;;;1.05;;
47758;SDS011;33520;55.122;35.582;2023-08-21T13:43:06;1.20;;;1.00;;
47758;SDS011;33520;55.122;35.582;2023-08-21T13:45:35;1.65;;;0.95;;
47758;SDS011;33520;55.122;35.582;2023-08-21T13:48:02;1.15;;;0.80;;
47758;SDS011;33520;55.122;35.582;2023-08-21T13:50:29;1.10;;;0.90;;
47758;SDS011;33520;55.122;35.582;2023-08-21T13:52:56;2.47;;;1.13;;
47758;SDS011;33520;55.122;35.582;2023-08-21T13:55:22;1.20;;;1.00;;
47758;SDS011;33520;55.122;35.582;2023-08-21T13:57:50;1.27;;;0.90;;
47758;SDS011;33520;55.122;35.582;2023-08-21T14:00:16;1.50;;;1.08;;
47758;SDS011;33520;55.122;35.582;2023-08-21T14:02:43;1.27;;;0.90;;
47758;SDS011;33520;55.122;35.582;2023-08-21T14:05:09;1.20;;;0.90;;
47758;SDS011;33520;55.122;35.582;2023-08-21T14:07:37;3.58;;;0.90;;
47758;SDS011;33520;55.122;35.582;2023-08-21T14:10:05;1.60;;;0.90;;
47758;SDS011;33520;55.122;35.582;2023-08-21T14:12:34;2.08;;;1.10;;
47758;SDS011;33520;55.122;35.582;2023-08-21T14:15:00;3.40;;;1.20;;
47758;SDS011;33520;55.122;35.582;2023-08-21T14:17:27;4.15;;;1.15;;
47758;SDS011;33520;55.122;35.582;2023-08-21T14:19:54;1.42;;;1.00;;
47758;SDS011;33520;55.122;35.582;2023-08-21T14:22:20;2.38;;;1.00;;
47758;SDS011;33520;55.122;35.582;2023-08-21T14:24:49;2.30;;;1.10;;
47758;SDS011;33520;55.122;35.582;2023-08-21T14:27:15;1.85;;;0.90;;
47758;SDS011;33520;55.122;35.582;2023-08-21T14:29:42;0.82;;;0.73;;
47758;SDS011;33520;55.122;35.582;2023-08-21T14:32:12;1.58;;;1.08;;
47758;SDS011;33520;55.122;35.582;2023-08-21T14:34:40;2.75;;;1.08;;
47758;SDS011;33520;55.122;35.582;2023-08-21T14:37:06;2.20;;;0.85;;
47758;SDS011;33520;55.122;35.582;2023-08-21T14:39:33;2.30;;;1.00;;
47758;SDS011;33520;55.122;35.582;2023-08-21T14:42:00;3.90;;;1.15;;
47758;SDS011;33520;55.122;35.582;2023-08-21T14:44:27;4.05;;;1.00;;
47758;SDS011;33520;55.122;35.582;2023-08-21T14:46:53;1.48;;;1.00;;
47758;SDS011;33520;55.122;35.582;2023-08-21T14:49:21;1.13;;;0.80;;
47758;SDS011;33520;55.122;35.582;2023-08-21T14:51:48;1.88;;;1.10;;
47758;SDS011;33520;55.122;35.582;2023-08-21T14:54:15;1.48;;;0.95;;
47758;SDS011;33520;55.122;35.582;2023-08-21T14:56:42;2.58;;;1.00;;
47758;SDS011;33520;55.122;35.582;2023-08-21T14:59:11;1.83;;;1.10;;
47758;SDS011;33520;55.122;35.582;2023-08-21T15:01:40;1.58;;;1.17;;
47758;SDS011;33520;55.122;35.582;2023-08-21T15:04:07;1.38;;;1.08;;
47758;SDS011;33520;55.122;35.582;2023-08-21T15:06:34;3.45;;;1.10;;
47758;SDS011;33520;55.122;35.582;2023-08-21T15:09:00;2.58;;;1.00;;
47758;SDS011;33520;55.122;35.582;2023-08-21T15:11:27;1.33;;;0.90;;
47758;SDS011;33520;55.122;35.582;2023-08-21T15:13:53;2.65;;;1.42;;
47758;SDS011;33520;55.122;35.582;2023-08-21T15:16:19;3.47;;;1.00;;
47758;SDS011;33520;55.122;35.582;2023-08-21T15:18:46;2.65;;;1.20;;
47758;SDS011;33520;55.122;35.582;2023-08-21T15:21:14;2.05;;;1.00;;
47758;SDS011;33520;55.122;35.582;2023-08-21T15:23:40;1.92;;;1.10;;
47758;SDS011;33520;55.122;35.582;2023-08-21T15:26:07;3.40;;;1.10;;
47758;SDS011;33520;55.122;35.582;2023-08-21T15:28:33;2.40;;;1.10;;